sensor_id;sensor_type;location;lat;lon;timestamp;temperature;humidity
47162;DHT22;32921;53.256;8.198;2023-07-02T00:02:24;15.00;99.90
47162;DHT22;32921;53.256;8.198;2023-07-02T00:04:50;15.00;99.90
47162;DHT22;32921;53.256;8.198;2023-07-02T00:07:16;15.10;99.90
47162;DHT22;32921;53.256;8.198;2023-07-02T00:09:41;15.10;99.90
47162;DHT22;32921;53.256;8.198;2023-07-02T00:12:07;15.20;99.90
47162;DHT22;32921;53.256;8.198;2023-07-02T00:14:33;15.30;99.90
47162;DHT22;32921;53.256;8.198;2023-07-02T00:16:59;15.30;99.90
47162;DHT22;32921;53.256;8.198;2023-07-02T00:19:25;15.40;99.90
47162;DHT22;32921;53.256;8.198;2023-07-02T00:21:51;15.40;99.90
47162;DHT22;32921;53.256;8.198;2023-07-02T00:24:18;15.40;99.90
47162;DHT22;32921;53.256;8.198;2023-07-02T00:26:44;15.40;99.90
47162;DHT22;32921;53.256;8.198;2023-07-02T00:29:09;15.40;99.90
47162;DHT22;32921;53.256;8.198;2023-07-02T00:31:35;15.40;99.90
47162;DHT22;32921;53.256;8.198;2023-07-02T00:34:01;15.30;99.90
47162;DHT22;32921;53.256;8.198;2023-07-02T00:36:28;15.30;99.90
47162;DHT22;32921;53.256;8.198;2023-07-02T00:38:54;15.30;99.90
47162;DHT22;32921;53.256;8.198;2023-07-02T00:41:20;15.30;99.90
47162;DHT22;32921;53.256;8.198;2023-07-02T00:43:45;15.30;99.90
47162;DHT22;32921;53.256;8.198;2023-07-02T00:46:13;15.30;99.90
47162;DHT22;32921;53.256;8.198;2023-07-02T00:48:53;15.30;99.90
47162;DHT22;32921;53.256;8.198;2023-07-02T00:51:21;15.20;99.90
47162;DHT22;32921;53.256;8.198;2023-07-02T00:53:48;15.20;99.90
47162;DHT22;32921;53.256;8.198;2023-07-02T00:56:14;15.20;99.90
47162;DHT22;32921;53.256;8.198;2023-07-02T00:58:41;15.20;99.90
47162;DHT22;32921;53.256;8.198;2023-07-02T01:01:16;15.10;99.90
47162;DHT22;32921;53.256;8.198;2023-07-02T01:03:55;15.10;99.90
47162;DHT22;32921;53.256;8.198;2023-07-02T01:06:26;15.10;99.90
47162;DHT22;32921;53.256;8.198;2023-07-02T01:08:56;15.10;99.90
47162;DHT22;32921;53.256;8.198;2023-07-02T01:11:25;15.00;99.90
47162;DHT22;32921;53.256;8.198;2023-07-02T01:13:55;14.90;99.90
47162;DHT22;32921;53.256;8.198;2023-07-02T01:16:21;14.80;99.90
47162;DHT22;32921;53.256;8.198;2023-07-02T01:18:48;14.70;99.90
47162;DHT22;32921;53.256;8.198;2023-07-02T01:21:16;14.60;99.90
47162;DHT22;32921;53.256;8.198;2023-07-02T01:23:42;14.60;99.90
47162;DHT22;32921;53.256;8.198;2023-07-02T01:26:08;14.60;99.90
47162;DHT22;32921;53.256;8.198;2023-07-02T01:28:37;14.50;99.90
47162;DHT22;32921;53.256;8.198;2023-07-02T01:31:04;14.50;99.90
47162;DHT22;32921;53.256;8.198;2023-07-02T01:33:30;14.40;99.90
47162;DHT22;32921;53.256;8.198;2023-07-02T01:35:56;14.40;99.90
47162;DHT22;32921;53.256;8.198;2023-07-02T01:38:22;14.30;99.90
47162;DHT22;32921;53.256;8.198;2023-07-02T01:40:47;14.40;99.90
47162;DHT22;32921;53.256;8.198;2023-07-02T01:43:13;14.30;99.90
47162;DHT22;32921;53.256;8.198;2023-07-02T01:45:40;14.20;99.90
47162;DHT22;32921;53.256;8.198;2023-07-02T01:48:06;14.20;99.90
47162;DHT22;32921;53.256;8.198;2023-07-02T01:50:31;14.10;99.90
47162;DHT22;32921;53.256;8.198;2023-07-02T01:52:57;14.10;99.90
47162;DHT22;32921;53.256;8.198;2023-07-02T01:55:22;14.10;99.90
47162;DHT22;32921;53.256;8.198;2023-07-02T01:57:48;14.00;99.90
47162;DHT22;32921;53.256;8.198;2023-07-02T02:00:14;14.00;99.90
47162;DHT22;32921;53.256;8.198;2023-07-02T02:02:39;13.80;99.90
47162;DHT22;32921;53.256;8.198;2023-07-02T02:05:05;13.80;99.90
47162;DHT22;32921;53.256;8.198;2023-07-02T02:07:31;13.70;99.90
47162;DHT22;32921;53.256;8.198;2023-07-02T02:09:57;13.80;99.90
47162;DHT22;32921;53.256;8.198;2023-07-02T02:12:23;13.80;99.90
47162;DHT22;32921;53.256;8.198;2023-07-02T02:14:49;13.70;99.90
47162;DHT22;32921;53.256;8.198;2023-07-02T02:17:14;13.70;99.90
47162;DHT22;32921;53.256;8.198;2023-07-02T02:19:40;13.60;99.90
47162;DHT22;32921;53.256;8.198;2023-07-02T02:22:05;13.50;99.90
47162;DHT22;32921;53.256;8.198;2023-07-02T02:24:31;13.60;99.90
47162;DHT22;32921;53.256;8.198;2023-07-02T02:26:56;13.40;99.90
47162;DHT22;32921;53.256;8.198;2023-07-02T02:29:22;13.30;99.90
47162;DHT22;32921;53.256;8.198;2023-07-02T02:31:47;13.30;99.90
47162;DHT22;32921;53.256;8.198;2023-07-02T02:34:13;13.30;99.90
47162;DHT22;32921;53.256;8.198;2023-07-02T02:36:38;13.40;99.90
47162;DHT22;32921;53.256;8.198;2023-07-02T02:39:04;13.50;99.90
47162;DHT22;32921;53.256;8.198;2023-07-02T02:41:30;13.50;99.90
47162;DHT22;32921;53.256;8.198;2023-07-02T02:43:56;13.50;99.90
47162;DHT22;32921;53.256;8.198;2023-07-02T02:46:22;13.50;99.90
47162;DHT22;32921;53.256;8.198;2023-07-02T02:48:48;13.40;99.90
47162;DHT22;32921;53.256;8.198;2023-07-02T02:51:14;13.40;99.90
47162;DHT22;32921;53.256;8.198;2023-07-02T02:53:40;13.40;99.90
47162;DHT22;32921;53.256;8.198;2023-07-02T02:56:05;13.30;99.90
47162;DHT22;32921;53.256;8.198;2023-07-02T02:58:31;13.10;99.90
47162;DHT22;32921;53.256;8.198;2023-07-02T03:00:56;13.10;99.90
47162;DHT22;32921;53.256;8.198;2023-07-02T03:03:22;13.20;99.90
47162;DHT22;32921;53.256;8.198;2023-07-02T03:05:52;13.20;99.90
47162;DHT22;32921;53.256;8.198;2023-07-02T03:08:18;13.30;99.90
47162;DHT22;32921;53.256;8.198;2023-07-02T03:10:43;13.40;99.90
47162;DHT22;32921;53.256;8.198;2023-07-02T03:13:09;13.40;99.90
47162;DHT22;32921;53.256;8.198;2023-07-02T03:15:35;13.40;99.90
47162;DHT22;32921;53.256;8.198;2023-07-02T03:18:00;13.30;99.90
47162;DHT22;32921;53.256;8.198;2023-07-02T03:20:26;13.30;99.90
47162;DHT22;32921;53.256;8.198;2023-07-02T03:22:51;13.30;99.90
47162;DHT22;32921;53.256;8.198;2023-07-02T03:25:17;13.30;99.90
47162;DHT22;32921;53.256;8.198;2023-07-02T03:27:42;13.30;99.90
47162;DHT22;32921;53.256;8.198;2023-07-02T03:30:08;13.30;99.90
47162;DHT22;32921;53.256;8.198;2023-07-02T03:32:34;13.30;99.90
47162;DHT22;32921;53.256;8.198;2023-07-02T03:34:59;13.30;99.90
47162;DHT22;32921;53.256;8.198;2023-07-02T03:37:26;13.40;99.90
47162;DHT22;32921;53.256;8.198;2023-07-02T03:39:52;13.30;99.90
47162;DHT22;32921;53.256;8.198;2023-07-02T03:42:17;13.30;99.90
47162;DHT22;32921;53.256;8.198;2023-07-02T03:44:43;13.30;99.90
47162;DHT22;32921;53.256;8.198;2023-07-02T03:47:08;13.40;99.90
47162;DHT22;32921;53.256;8.198;2023-07-02T03:49:34;13.30;99.90
47162;DHT22;32921;53.256;8.198;2023-07-02T03:51:59;13.30;99.90
47162;DHT22;32921;53.256;8.198;2023-07-02T03:54:25;13.30;99.90
47162;DHT22;32921;53.256;8.198;2023-07-02T03:56:50;13.30;99.90
47162;DHT22;32921;53.256;8.198;2023-07-02T03:59:16;13.30;99.90
47162;DHT22;32921;53.256;8.198;2023-07-02T04:01:42;13.40;99.90
47162;DHT22;32921;53.256;8.198;2023-07-02T04:04:08;13.40;99.90
47162;DHT22;32921;53.256;8.198;2023-07-02T04:06:33;13.40;99.90
47162;DHT22;32921;53.256;8.198;2023-07-02T04:08:59;13.40;99.90
47162;DHT22;32921;53.256;8.198;2023-07-02T04:11:25;13.40;99.90
47162;DHT22;32921;53.256;8.198;2023-07-02T04:13:50;13.50;99.90
47162;DHT22;32921;53.256;8.198;2023-07-02T04:16:16;13.50;99.90
47162;DHT22;32921;53.256;8.198;2023-07-02T04:18:41;13.50;99.90
47162;DHT22;32921;53.256;8.198;2023-07-02T04:21:07;13.50;99.90
47162;DHT22;32921;53.256;8.198;2023-07-02T04:23:33;13.60;99.90
47162;DHT22;32921;53.256;8.198;2023-07-02T04:25:58;13.70;99.90
47162;DHT22;32921;53.256;8.198;2023-07-02T04:28:24;13.70;99.90
47162;DHT22;32921;53.256;8.198;2023-07-02T04:30:50;13.80;99.90
47162;DHT22;32921;53.256;8.198;2023-07-02T04:33:17;13.80;99.90
47162;DHT22;32921;53.256;8.198;2023-07-02T04:35:42;13.80;99.90
47162;DHT22;32921;53.256;8.198;2023-07-02T04:38:08;13.90;99.90
47162;DHT22;32921;53.256;8.198;2023-07-02T04:40:34;13.90;99.90
47162;DHT22;32921;53.256;8.198;2023-07-02T04:42:59;14.00;99.90
47162;DHT22;32921;53.256;8.198;2023-07-02T04:45:27;14.10;99.90
47162;DHT22;32921;53.256;8.198;2023-07-02T04:48:00;14.20;99.90
47162;DHT22;32921;53.256;8.198;2023-07-02T04:50:26;14.30;99.90
47162;DHT22;32921;53.256;8.198;2023-07-02T04:52:52;14.30;99.90
47162;DHT22;32921;53.256;8.198;2023-07-02T04:55:17;14.40;99.90
47162;DHT22;32921;53.256;8.198;2023-07-02T04:57:43;14.40;99.90
47162;DHT22;32921;53.256;8.198;2023-07-02T05:00:10;14.50;99.90
47162;DHT22;32921;53.256;8.198;2023-07-02T05:02:36;14.50;99.90
47162;DHT22;32921;53.256;8.198;2023-07-02T05:05:01;14.60;99.90
47162;DHT22;32921;53.256;8.198;2023-07-02T05:07:27;14.60;99.90
47162;DHT22;32921;53.256;8.198;2023-07-02T05:09:52;14.70;99.90
47162;DHT22;32921;53.256;8.198;2023-07-02T05:12:18;14.80;99.90
47162;DHT22;32921;53.256;8.198;2023-07-02T05:14:45;15.10;99.90
47162;DHT22;32921;53.256;8.198;2023-07-02T05:17:11;15.60;99.90
47162;DHT22;32921;53.256;8.198;2023-07-02T05:19:36;16.00;99.90
47162;DHT22;32921;53.256;8.198;2023-07-02T05:22:02;16.50;99.90
47162;DHT22;32921;53.256;8.198;2023-07-02T05:24:28;16.60;99.90
47162;DHT22;32921;53.256;8.198;2023-07-02T05:26:53;16.90;99.90
47162;DHT22;32921;53.256;8.198;2023-07-02T05:29:19;17.10;99.90
47162;DHT22;32921;53.256;8.198;2023-07-02T05:31:44;17.20;99.90
47162;DHT22;32921;53.256;8.198;2023-07-02T05:34:10;17.40;99.90
47162;DHT22;32921;53.256;8.198;2023-07-02T05:36:36;17.60;99.90
47162;DHT22;32921;53.256;8.198;2023-07-02T05:39:01;17.40;99.90
47162;DHT22;32921;53.256;8.198;2023-07-02T05:41:27;17.50;99.90
47162;DHT22;32921;53.256;8.198;2023-07-02T05:43:57;17.60;99.90
47162;DHT22;32921;53.256;8.198;2023-07-02T05:46:22;17.50;99.90
47162;DHT22;32921;53.256;8.198;2023-07-02T05:48:48;17.60;99.90
47162;DHT22;32921;53.256;8.198;2023-07-02T05:51:14;17.60;99.90
47162;DHT22;32921;53.256;8.198;2023-07-02T05:53:39;17.40;99.90
47162;DHT22;32921;53.256;8.198;2023-07-02T05:56:05;17.10;99.90
47162;DHT22;32921;53.256;8.198;2023-07-02T05:58:30;16.90;99.90
47162;DHT22;32921;53.256;8.198;2023-07-02T06:00:56;16.90;99.90
47162;DHT22;32921;53.256;8.198;2023-07-02T06:03:21;17.00;99.90
47162;DHT22;32921;53.256;8.198;2023-07-02T06:05:48;17.50;99.90
47162;DHT22;32921;53.256;8.198;2023-07-02T06:08:15;17.80;99.90
47162;DHT22;32921;53.256;8.198;2023-07-02T06:10:41;18.00;99.90
47162;DHT22;32921;53.256;8.198;2023-07-02T06:13:07;18.10;99.90
47162;DHT22;32921;53.256;8.198;2023-07-02T06:15:33;18.20;99.90
47162;DHT22;32921;53.256;8.198;2023-07-02T06:17:58;18.60;99.90
47162;DHT22;32921;53.256;8.198;2023-07-02T06:20:24;18.90;99.90
47162;DHT22;32921;53.256;8.198;2023-07-02T06:22:49;18.90;99.90
47162;DHT22;32921;53.256;8.198;2023-07-02T06:25:15;19.00;99.90
47162;DHT22;32921;53.256;8.198;2023-07-02T06:27:40;19.10;99.90
47162;DHT22;32921;53.256;8.198;2023-07-02T06:30:06;19.10;99.90
47162;DHT22;32921;53.256;8.198;2023-07-02T06:32:32;19.40;99.50
47162;DHT22;32921;53.256;8.198;2023-07-02T06:34:58;19.60;98.10
47162;DHT22;32921;53.256;8.198;2023-07-02T06:37:23;19.30;97.30
47162;DHT22;32921;53.256;8.198;2023-07-02T06:39:49;19.40;98.00
47162;DHT22;32921;53.256;8.198;2023-07-02T06:42:14;19.70;97.30
47162;DHT22;32921;53.256;8.198;2023-07-02T06:44:41;19.50;96.30
47162;DHT22;32921;53.256;8.198;2023-07-02T06:47:07;19.50;95.50
47162;DHT22;32921;53.256;8.198;2023-07-02T06:49:33;19.70;95.10
47162;DHT22;32921;53.256;8.198;2023-07-02T06:51:58;19.90;93.20
47162;DHT22;32921;53.256;8.198;2023-07-02T06:54:26;19.90;91.00
47162;DHT22;32921;53.256;8.198;2023-07-02T06:56:51;20.00;91.30
47162;DHT22;32921;53.256;8.198;2023-07-02T06:59:20;20.10;90.20
47162;DHT22;32921;53.256;8.198;2023-07-02T07:01:46;19.90;88.10
47162;DHT22;32921;53.256;8.198;2023-07-02T07:04:12;20.20;90.00
47162;DHT22;32921;53.256;8.198;2023-07-02T07:06:37;20.40;91.20
47162;DHT22;32921;53.256;8.198;2023-07-02T07:09:03;20.70;89.50
47162;DHT22;32921;53.256;8.198;2023-07-02T07:11:29;20.40;86.70
47162;DHT22;32921;53.256;8.198;2023-07-02T07:13:55;19.80;88.00
47162;DHT22;32921;53.256;8.198;2023-07-02T07:16:21;19.70;89.40
47162;DHT22;32921;53.256;8.198;2023-07-02T07:18:47;19.70;90.80
47162;DHT22;32921;53.256;8.198;2023-07-02T07:21:12;20.00;88.90
47162;DHT22;32921;53.256;8.198;2023-07-02T07:23:39;20.20;89.80
47162;DHT22;32921;53.256;8.198;2023-07-02T07:26:04;20.60;87.20
47162;DHT22;32921;53.256;8.198;2023-07-02T07:28:30;20.40;83.60
47162;DHT22;32921;53.256;8.198;2023-07-02T07:30:55;20.00;86.00
47162;DHT22;32921;53.256;8.198;2023-07-02T07:33:21;20.40;86.30
47162;DHT22;32921;53.256;8.198;2023-07-02T07:35:46;20.10;86.40
47162;DHT22;32921;53.256;8.198;2023-07-02T07:38:15;20.20;83.70
47162;DHT22;32921;53.256;8.198;2023-07-02T07:40:42;20.30;85.60
47162;DHT22;32921;53.256;8.198;2023-07-02T07:43:08;21.00;86.20
47162;DHT22;32921;53.256;8.198;2023-07-02T07:45:34;21.10;80.20
47162;DHT22;32921;53.256;8.198;2023-07-02T07:48:00;21.20;80.50
47162;DHT22;32921;53.256;8.198;2023-07-02T07:50:25;21.30;81.70
47162;DHT22;32921;53.256;8.198;2023-07-02T07:52:51;21.00;80.10
47162;DHT22;32921;53.256;8.198;2023-07-02T07:55:17;20.90;84.10
47162;DHT22;32921;53.256;8.198;2023-07-02T07:57:42;21.10;84.50
47162;DHT22;32921;53.256;8.198;2023-07-02T08:00:08;20.80;83.30
47162;DHT22;32921;53.256;8.198;2023-07-02T08:02:37;20.80;80.50
47162;DHT22;32921;53.256;8.198;2023-07-02T08:05:03;21.40;78.80
47162;DHT22;32921;53.256;8.198;2023-07-02T08:07:30;21.90;73.60
47162;DHT22;32921;53.256;8.198;2023-07-02T08:09:56;22.10;73.80
47162;DHT22;32921;53.256;8.198;2023-07-02T08:12:22;22.70;74.80
47162;DHT22;32921;53.256;8.198;2023-07-02T08:14:47;22.60;69.40
47162;DHT22;32921;53.256;8.198;2023-07-02T08:17:13;21.40;69.60
47162;DHT22;32921;53.256;8.198;2023-07-02T08:19:38;20.80;69.00
47162;DHT22;32921;53.256;8.198;2023-07-02T08:22:04;20.70;71.90
47162;DHT22;32921;53.256;8.198;2023-07-02T08:24:30;20.30;72.10
47162;DHT22;32921;53.256;8.198;2023-07-02T08:26:57;20.70;72.40
47162;DHT22;32921;53.256;8.198;2023-07-02T08:29:23;21.00;72.50
47162;DHT22;32921;53.256;8.198;2023-07-02T08:31:48;20.60;74.90
47162;DHT22;32921;53.256;8.198;2023-07-02T08:34:14;20.10;75.40
47162;DHT22;32921;53.256;8.198;2023-07-02T08:36:39;19.60;78.20
47162;DHT22;32921;53.256;8.198;2023-07-02T08:39:05;19.30;79.30
47162;DHT22;32921;53.256;8.198;2023-07-02T08:41:42;19.70;80.30
47162;DHT22;32921;53.256;8.198;2023-07-02T08:44:09;20.80;76.70
47162;DHT22;32921;53.256;8.198;2023-07-02T08:46:35;21.50;75.70
47162;DHT22;32921;53.256;8.198;2023-07-02T08:49:00;22.10;74.20
47162;DHT22;32921;53.256;8.198;2023-07-02T08:51:26;22.30;73.20
47162;DHT22;32921;53.256;8.198;2023-07-02T08:53:51;22.40;70.90
47162;DHT22;32921;53.256;8.198;2023-07-02T08:56:17;22.10;70.70
47162;DHT22;32921;53.256;8.198;2023-07-02T08:58:42;22.60;75.40
47162;DHT22;32921;53.256;8.198;2023-07-02T09:01:09;23.00;67.00
47162;DHT22;32921;53.256;8.198;2023-07-02T09:03:35;22.50;64.50
47162;DHT22;32921;53.256;8.198;2023-07-02T09:06:05;22.70;65.10
47162;DHT22;32921;53.256;8.198;2023-07-02T09:08:30;23.00;68.00
47162;DHT22;32921;53.256;8.198;2023-07-02T09:11:09;23.70;65.10
47162;DHT22;32921;53.256;8.198;2023-07-02T09:13:48;24.10;62.30
47162;DHT22;32921;53.256;8.198;2023-07-02T09:16:25;23.50;61.70
47162;DHT22;32921;53.256;8.198;2023-07-02T09:19:02;23.10;59.10
47162;DHT22;32921;53.256;8.198;2023-07-02T09:21:43;22.90;61.10
47162;DHT22;32921;53.256;8.198;2023-07-02T09:24:19;23.30;57.80
47162;DHT22;32921;53.256;8.198;2023-07-02T09:26:50;23.90;55.30
47162;DHT22;32921;53.256;8.198;2023-07-02T09:29:25;24.50;53.60
47162;DHT22;32921;53.256;8.198;2023-07-02T09:31:57;23.40;54.80
47162;DHT22;32921;53.256;8.198;2023-07-02T09:34:30;23.00;54.10
47162;DHT22;32921;53.256;8.198;2023-07-02T09:36:57;23.20;58.60
47162;DHT22;32921;53.256;8.198;2023-07-02T09:39:30;23.70;55.00
47162;DHT22;32921;53.256;8.198;2023-07-02T09:41:58;23.30;53.60
47162;DHT22;32921;53.256;8.198;2023-07-02T09:44:31;23.00;54.60
47162;DHT22;32921;53.256;8.198;2023-07-02T09:47:03;23.80;54.60
47162;DHT22;32921;53.256;8.198;2023-07-02T09:49:35;24.10;54.10
47162;DHT22;32921;53.256;8.198;2023-07-02T09:52:03;23.60;50.80
47162;DHT22;32921;53.256;8.198;2023-07-02T09:54:29;23.40;51.90
47162;DHT22;32921;53.256;8.198;2023-07-02T09:56:55;22.70;55.80
47162;DHT22;32921;53.256;8.198;2023-07-02T09:59:21;22.00;56.20
47162;DHT22;32921;53.256;8.198;2023-07-02T10:01:47;21.70;58.00
47162;DHT22;32921;53.256;8.198;2023-07-02T10:04:14;21.40;60.70
47162;DHT22;32921;53.256;8.198;2023-07-02T10:06:51;21.10;60.30
47162;DHT22;32921;53.256;8.198;2023-07-02T10:09:22;20.90;63.10
47162;DHT22;32921;53.256;8.198;2023-07-02T10:11:59;21.50;64.10
47162;DHT22;32921;53.256;8.198;2023-07-02T10:14:25;22.30;60.10
47162;DHT22;32921;53.256;8.198;2023-07-02T10:16:52;22.70;58.70
47162;DHT22;32921;53.256;8.198;2023-07-02T10:19:18;23.10;58.10
47162;DHT22;32921;53.256;8.198;2023-07-02T10:21:44;23.60;56.40
47162;DHT22;32921;53.256;8.198;2023-07-02T10:24:11;23.60;54.60
47162;DHT22;32921;53.256;8.198;2023-07-02T10:26:37;23.70;56.00
47162;DHT22;32921;53.256;8.198;2023-07-02T10:29:03;23.40;55.80
47162;DHT22;32921;53.256;8.198;2023-07-02T10:31:29;22.80;56.90
47162;DHT22;32921;53.256;8.198;2023-07-02T10:33:55;22.30;57.40
47162;DHT22;32921;53.256;8.198;2023-07-02T10:36:23;22.30;60.90
47162;DHT22;32921;53.256;8.198;2023-07-02T10:38:49;23.20;58.20
47162;DHT22;32921;53.256;8.198;2023-07-02T10:41:28;23.30;58.20
47162;DHT22;32921;53.256;8.198;2023-07-02T10:44:04;24.30;56.00
47162;DHT22;32921;53.256;8.198;2023-07-02T10:46:30;24.60;56.40
47162;DHT22;32921;53.256;8.198;2023-07-02T10:48:56;25.10;53.10
47162;DHT22;32921;53.256;8.198;2023-07-02T10:51:23;24.40;57.80
47162;DHT22;32921;53.256;8.198;2023-07-02T10:54:02;24.40;55.80
47162;DHT22;32921;53.256;8.198;2023-07-02T10:56:30;24.40;55.30
47162;DHT22;32921;53.256;8.198;2023-07-02T10:58:56;24.70;57.30
47162;DHT22;32921;53.256;8.198;2023-07-02T11:01:23;24.80;56.50
47162;DHT22;32921;53.256;8.198;2023-07-02T11:03:56;24.70;57.30
47162;DHT22;32921;53.256;8.198;2023-07-02T11:06:21;25.20;57.00
47162;DHT22;32921;53.256;8.198;2023-07-02T11:08:47;25.80;51.80
47162;DHT22;32921;53.256;8.198;2023-07-02T11:11:12;25.50;50.10
47162;DHT22;32921;53.256;8.198;2023-07-02T11:13:45;24.80;53.00
47162;DHT22;32921;53.256;8.198;2023-07-02T11:18:50;25.40;51.60
47162;DHT22;32921;53.256;8.198;2023-07-02T11:21:16;25.30;55.70
47162;DHT22;32921;53.256;8.198;2023-07-02T11:23:41;25.20;51.70
47162;DHT22;32921;53.256;8.198;2023-07-02T11:26:07;25.30;52.20
47162;DHT22;32921;53.256;8.198;2023-07-02T11:28:33;24.70;52.00
47162;DHT22;32921;53.256;8.198;2023-07-02T11:31:00;23.70;53.70
47162;DHT22;32921;53.256;8.198;2023-07-02T11:33:41;22.80;55.80
47162;DHT22;32921;53.256;8.198;2023-07-02T11:36:07;22.20;57.70
47162;DHT22;32921;53.256;8.198;2023-07-02T11:38:34;21.50;62.50
47162;DHT22;32921;53.256;8.198;2023-07-02T11:41:03;21.50;63.30
47162;DHT22;32921;53.256;8.198;2023-07-02T11:43:29;21.20;65.70
47162;DHT22;32921;53.256;8.198;2023-07-02T11:45:54;20.90;65.20
47162;DHT22;32921;53.256;8.198;2023-07-02T11:48:20;22.20;65.00
47162;DHT22;32921;53.256;8.198;2023-07-02T11:50:45;24.00;56.30
47162;DHT22;32921;53.256;8.198;2023-07-02T11:53:11;24.60;56.80
47162;DHT22;32921;53.256;8.198;2023-07-02T11:55:37;24.40;56.00
47162;DHT22;32921;53.256;8.198;2023-07-02T11:58:02;24.20;55.60
47162;DHT22;32921;53.256;8.198;2023-07-02T12:00:28;23.50;54.40
47162;DHT22;32921;53.256;8.198;2023-07-02T12:02:54;23.30;57.30
47162;DHT22;32921;53.256;8.198;2023-07-02T12:05:20;23.50;56.80
47162;DHT22;32921;53.256;8.198;2023-07-02T12:07:46;24.20;53.10
47162;DHT22;32921;53.256;8.198;2023-07-02T12:10:11;24.20;52.20
47162;DHT22;32921;53.256;8.198;2023-07-02T12:12:37;24.40;47.70
47162;DHT22;32921;53.256;8.198;2023-07-02T12:15:03;23.90;49.80
47162;DHT22;32921;53.256;8.198;2023-07-02T12:17:28;24.00;50.90
47162;DHT22;32921;53.256;8.198;2023-07-02T12:19:54;23.80;48.30
47162;DHT22;32921;53.256;8.198;2023-07-02T12:22:19;22.50;50.70
47162;DHT22;32921;53.256;8.198;2023-07-02T12:24:47;21.60;53.10
47162;DHT22;32921;53.256;8.198;2023-07-02T12:27:15;20.80;55.90
47162;DHT22;32921;53.256;8.198;2023-07-02T12:29:40;21.10;56.80
47162;DHT22;32921;53.256;8.198;2023-07-02T12:32:06;22.10;54.30
47162;DHT22;32921;53.256;8.198;2023-07-02T12:34:32;23.40;51.70
47162;DHT22;32921;53.256;8.198;2023-07-02T12:36:58;24.50;51.00
47162;DHT22;32921;53.256;8.198;2023-07-02T12:39:23;24.30;48.20
47162;DHT22;32921;53.256;8.198;2023-07-02T12:41:49;23.90;47.40
47162;DHT22;32921;53.256;8.198;2023-07-02T12:44:14;23.90;50.70
47162;DHT22;32921;53.256;8.198;2023-07-02T12:46:41;23.30;50.30
47162;DHT22;32921;53.256;8.198;2023-07-02T12:49:06;23.30;52.10
47162;DHT22;32921;53.256;8.198;2023-07-02T12:51:32;23.20;51.40
47162;DHT22;32921;53.256;8.198;2023-07-02T12:53:57;23.30;52.50
47162;DHT22;32921;53.256;8.198;2023-07-02T12:56:23;23.00;54.10
47162;DHT22;32921;53.256;8.198;2023-07-02T12:58:48;22.60;57.10
47162;DHT22;32921;53.256;8.198;2023-07-02T13:01:16;23.40;52.60
47162;DHT22;32921;53.256;8.198;2023-07-02T13:03:46;23.20;53.20
47162;DHT22;32921;53.256;8.198;2023-07-02T13:06:16;22.80;54.20
47162;DHT22;32921;53.256;8.198;2023-07-02T13:08:41;21.80;54.70
47162;DHT22;32921;53.256;8.198;2023-07-02T13:11:07;21.10;56.60
47162;DHT22;32921;53.256;8.198;2023-07-02T13:13:34;22.00;56.60
47162;DHT22;32921;53.256;8.198;2023-07-02T13:16:01;22.30;51.20
47162;DHT22;32921;53.256;8.198;2023-07-02T13:18:27;22.10;52.60
47162;DHT22;32921;53.256;8.198;2023-07-02T13:20:53;21.70;53.90
47162;DHT22;32921;53.256;8.198;2023-07-02T13:23:18;20.80;55.10
47162;DHT22;32921;53.256;8.198;2023-07-02T13:25:44;20.10;58.10
47162;DHT22;32921;53.256;8.198;2023-07-02T13:28:09;20.00;59.70
47162;DHT22;32921;53.256;8.198;2023-07-02T13:30:35;20.50;61.20
47162;DHT22;32921;53.256;8.198;2023-07-02T13:33:00;22.50;57.60
47162;DHT22;32921;53.256;8.198;2023-07-02T13:35:26;24.20;53.00
47162;DHT22;32921;53.256;8.198;2023-07-02T13:37:52;25.10;47.30
47162;DHT22;32921;53.256;8.198;2023-07-02T13:40:18;24.30;50.60
47162;DHT22;32921;53.256;8.198;2023-07-02T13:42:44;22.90;52.70
47162;DHT22;32921;53.256;8.198;2023-07-02T13:45:10;22.00;54.90
47162;DHT22;32921;53.256;8.198;2023-07-02T13:47:36;21.30;58.70
47162;DHT22;32921;53.256;8.198;2023-07-02T13:50:03;20.80;59.30
47162;DHT22;32921;53.256;8.198;2023-07-02T13:52:29;20.70;60.60
47162;DHT22;32921;53.256;8.198;2023-07-02T13:54:55;20.30;60.40
47162;DHT22;32921;53.256;8.198;2023-07-02T13:57:20;20.70;60.90
47162;DHT22;32921;53.256;8.198;2023-07-02T13:59:46;22.30;55.70
47162;DHT22;32921;53.256;8.198;2023-07-02T14:02:11;22.80;52.50
47162;DHT22;32921;53.256;8.198;2023-07-02T14:04:37;24.20;50.90
47162;DHT22;32921;53.256;8.198;2023-07-02T14:07:03;23.60;49.50
47162;DHT22;32921;53.256;8.198;2023-07-02T14:09:29;22.30;52.00
47162;DHT22;32921;53.256;8.198;2023-07-02T14:11:55;21.60;55.00
47162;DHT22;32921;53.256;8.198;2023-07-02T14:14:20;21.00;56.90
47162;DHT22;32921;53.256;8.198;2023-07-02T14:16:46;20.80;59.00
47162;DHT22;32921;53.256;8.198;2023-07-02T14:19:12;21.40;59.10
47162;DHT22;32921;53.256;8.198;2023-07-02T14:21:37;22.50;56.10
47162;DHT22;32921;53.256;8.198;2023-07-02T14:24:03;22.00;55.80
47162;DHT22;32921;53.256;8.198;2023-07-02T14:26:30;22.00;57.90
47162;DHT22;32921;53.256;8.198;2023-07-02T14:28:55;22.30;56.50
47162;DHT22;32921;53.256;8.198;2023-07-02T14:31:21;22.30;54.00
47162;DHT22;32921;53.256;8.198;2023-07-02T14:33:47;22.00;55.50
47162;DHT22;32921;53.256;8.198;2023-07-02T14:36:12;21.40;57.80
47162;DHT22;32921;53.256;8.198;2023-07-02T14:38:38;21.20;57.30
47162;DHT22;32921;53.256;8.198;2023-07-02T14:41:03;21.10;58.00
47162;DHT22;32921;53.256;8.198;2023-07-02T14:43:30;21.50;59.20
47162;DHT22;32921;53.256;8.198;2023-07-02T14:45:58;22.10;54.40
47162;DHT22;32921;53.256;8.198;2023-07-02T14:48:24;23.00;51.90
47162;DHT22;32921;53.256;8.198;2023-07-02T14:50:52;22.10;53.50
47162;DHT22;32921;53.256;8.198;2023-07-02T14:53:19;21.50;54.50
47162;DHT22;32921;53.256;8.198;2023-07-02T14:55:45;21.60;54.60
47162;DHT22;32921;53.256;8.198;2023-07-02T14:58:12;21.60;54.40
47162;DHT22;32921;53.256;8.198;2023-07-02T15:00:48;21.70;54.00
47162;DHT22;32921;53.256;8.198;2023-07-02T15:03:14;21.30;55.00
47162;DHT22;32921;53.256;8.198;2023-07-02T15:05:40;20.70;56.00
47162;DHT22;32921;53.256;8.198;2023-07-02T15:08:07;20.70;57.40
47162;DHT22;32921;53.256;8.198;2023-07-02T15:10:34;20.70;56.80
47162;DHT22;32921;53.256;8.198;2023-07-02T15:13:00;21.40;58.00
47162;DHT22;32921;53.256;8.198;2023-07-02T15:15:26;21.20;54.60
47162;DHT22;32921;53.256;8.198;2023-07-02T15:17:51;21.20;55.30
47162;DHT22;32921;53.256;8.198;2023-07-02T15:20:17;21.20;55.80
47162;DHT22;32921;53.256;8.198;2023-07-02T15:22:42;22.00;54.80
47162;DHT22;32921;53.256;8.198;2023-07-02T15:25:08;23.20;53.10
47162;DHT22;32921;53.256;8.198;2023-07-02T15:27:34;22.70;52.50
47162;DHT22;32921;53.256;8.198;2023-07-02T15:29:59;22.00;52.90